sensor_id;sensor_type;location;lat;lon;timestamp;P1;durP1;ratioP1;P2;durP2;ratioP2
4808;SDS011;2418;49.930;8.606;2023-05-19T00:01:27;3.70;;;3.20;;
4808;SDS011;2418;49.930;8.606;2023-05-19T00:03:53;5.90;;;2.80;;
4808;SDS011;2418;49.930;8.606;2023-05-19T00:06:25;2.50;;;2.30;;
4808;SDS011;2418;49.930;8.606;2023-05-19T00:08:54;9.57;;;2.60;;
4808;SDS011;2418;49.930;8.606;2023-05-19T00:11:34;4.85;;;2.70;;
4808;SDS011;2418;49.930;8.606;2023-05-19T00:14:00;3.38;;;2.40;;
4808;SDS011;2418;49.930;8.606;2023-05-19T00:16:27;7.20;;;2.92;;
4808;SDS011;2418;49.930;8.606;2023-05-19T00:18:53;4.07;;;3.10;;
4808;SDS011;2418;49.930;8.606;2023-05-19T00:21:21;4.82;;;2.65;;
4808;SDS011;2418;49.930;8.606;2023-05-19T00:23:47;5.78;;;2.88;;
4808;SDS011;2418;49.930;8.606;2023-05-19T00:26:13;7.57;;;3.00;;
4808;SDS011;2418;49.930;8.606;2023-05-19T00:28:38;4.95;;;3.08;;
4808;SDS011;2418;49.930;8.606;2023-05-19T00:31:04;5.70;;;3.00;;
4808;SDS011;2418;49.930;8.606;2023-05-19T00:33:30;3.65;;;3.35;;
4808;SDS011;2418;49.930;8.606;2023-05-19T00:35:57;4.40;;;2.55;;
4808;SDS011;2418;49.930;8.606;2023-05-19T00:38:24;4.97;;;2.50;;
4808;SDS011;2418;49.930;8.606;2023-05-19T00:40:50;4.50;;;2.40;;
4808;SDS011;2418;49.930;8.606;2023-05-19T00:43:16;4.60;;;3.03;;
4808;SDS011;2418;49.930;8.606;2023-05-19T00:45:42;8.38;;;3.58;;
4808;SDS011;2418;49.930;8.606;2023-05-19T00:48:08;6.47;;;2.90;;
4808;SDS011;2418;49.930;8.606;2023-05-19T00:50:34;4.65;;;3.55;;
4808;SDS011;2418;49.930;8.606;2023-05-19T00:53:00;6.90;;;2.90;;
4808;SDS011;2418;49.930;8.606;2023-05-19T00:55:26;5.00;;;3.00;;
4808;SDS011;2418;49.930;8.606;2023-05-19T00:57:57;7.40;;;2.78;;
4808;SDS011;2418;49.930;8.606;2023-05-19T01:00:23;5.20;;;2.70;;
4808;SDS011;2418;49.930;8.606;2023-05-19T01:02:49;9.55;;;2.60;;
4808;SDS011;2418;49.930;8.606;2023-05-19T01:05:15;8.70;;;3.53;;
4808;SDS011;2418;49.930;8.606;2023-05-19T01:07:42;6.90;;;2.95;;
4808;SDS011;2418;49.930;8.606;2023-05-19T01:10:08;3.37;;;2.47;;
4808;SDS011;2418;49.930;8.606;2023-05-19T01:12:34;6.15;;;2.50;;
4808;SDS011;2418;49.930;8.606;2023-05-19T01:15:01;6.93;;;2.80;;
4808;SDS011;2418;49.930;8.606;2023-05-19T01:22:41;3.90;;;2.40;;
4808;SDS011;2418;49.930;8.606;2023-05-19T01:27:46;6.95;;;2.60;;
4808;SDS011;2418;49.930;8.606;2023-05-19T01:30:32;4.38;;;3.00;;
4808;SDS011;2418;49.930;8.606;2023-05-19T01:33:01;4.80;;;2.53;;
4808;SDS011;2418;49.930;8.606;2023-05-19T01:35:27;4.38;;;2.67;;
4808;SDS011;2418;49.930;8.606;2023-05-19T01:37:55;5.90;;;2.45;;
4808;SDS011;2418;49.930;8.606;2023-05-19T01:40:22;4.95;;;2.80;;
4808;SDS011;2418;49.930;8.606;2023-05-19T01:42:49;8.45;;;2.50;;
4808;SDS011;2418;49.930;8.606;2023-05-19T01:45:16;5.03;;;3.30;;
4808;SDS011;2418;49.930;8.606;2023-05-19T01:47:47;4.07;;;2.50;;
4808;SDS011;2418;49.930;8.606;2023-05-19T01:50:13;3.20;;;2.47;;
4808;SDS011;2418;49.930;8.606;2023-05-19T01:52:39;3.22;;;2.40;;
4808;SDS011;2418;49.930;8.606;2023-05-19T01:55:05;7.70;;;2.80;;
4808;SDS011;2418;49.930;8.606;2023-05-19T01:57:39;6.93;;;2.60;;
4808;SDS011;2418;49.930;8.606;2023-05-19T02:03:19;5.68;;;2.40;;
4808;SDS011;2418;49.930;8.606;2023-05-19T02:06:18;6.45;;;2.40;;
4808;SDS011;2418;49.930;8.606;2023-05-19T02:11:18;6.60;;;2.50;;
4808;SDS011;2418;49.930;8.606;2023-05-19T02:13:47;2.60;;;1.85;;
4808;SDS011;2418;49.930;8.606;2023-05-19T02:16:15;3.17;;;2.50;;
4808;SDS011;2418;49.930;8.606;2023-05-19T02:18:41;3.70;;;2.40;;
4808;SDS011;2418;49.930;8.606;2023-05-19T02:21:09;11.50;;;3.80;;
4808;SDS011;2418;49.930;8.606;2023-05-19T02:23:37;6.90;;;2.90;;
4808;SDS011;2418;49.930;8.606;2023-05-19T02:26:03;10.32;;;2.70;;
4808;SDS011;2418;49.930;8.606;2023-05-19T02:28:29;3.13;;;1.90;;
4808;SDS011;2418;49.930;8.606;2023-05-19T02:30:55;3.47;;;2.40;;
4808;SDS011;2418;49.930;8.606;2023-05-19T02:33:21;7.68;;;2.80;;
4808;SDS011;2418;49.930;8.606;2023-05-19T02:35:50;5.65;;;3.00;;
4808;SDS011;2418;49.930;8.606;2023-05-19T02:38:15;3.67;;;2.30;;
4808;SDS011;2418;49.930;8.606;2023-05-19T02:40:42;5.53;;;2.70;;
4808;SDS011;2418;49.930;8.606;2023-05-19T02:43:08;2.78;;;2.58;;
4808;SDS011;2418;49.930;8.606;2023-05-19T02:45:33;3.15;;;2.40;;
4808;SDS011;2418;49.930;8.606;2023-05-19T02:48:00;12.57;;;2.40;;
4808;SDS011;2418;49.930;8.606;2023-05-19T02:50:26;7.90;;;3.00;;
4808;SDS011;2418;49.930;8.606;2023-05-19T02:52:52;7.80;;;2.40;;
4808;SDS011;2418;49.930;8.606;2023-05-19T02:55:18;2.78;;;2.58;;
4808;SDS011;2418;49.930;8.606;2023-05-19T02:57:44;6.70;;;2.60;;
4808;SDS011;2418;49.930;8.606;2023-05-19T03:00:10;6.53;;;2.30;;
4808;SDS011;2418;49.930;8.606;2023-05-19T03:02:36;4.93;;;2.97;;
4808;SDS011;2418;49.930;8.606;2023-05-19T03:05:02;5.53;;;2.65;;
4808;SDS011;2418;49.930;8.606;2023-05-19T03:07:29;4.20;;;2.85;;
4808;SDS011;2418;49.930;8.606;2023-05-19T03:09:54;7.03;;;3.00;;
4808;SDS011;2418;49.930;8.606;2023-05-19T03:12:21;3.42;;;2.50;;
4808;SDS011;2418;49.930;8.606;2023-05-19T03:14:46;4.10;;;2.20;;
4808;SDS011;2418;49.930;8.606;2023-05-19T03:17:12;7.03;;;2.70;;
4808;SDS011;2418;49.930;8.606;2023-05-19T03:19:39;4.30;;;2.50;;
4808;SDS011;2418;49.930;8.606;2023-05-19T03:22:05;5.80;;;2.20;;
4808;SDS011;2418;49.930;8.606;2023-05-19T03:24:31;6.75;;;2.53;;
4808;SDS011;2418;49.930;8.606;2023-05-19T03:26:57;5.75;;;2.90;;
4808;SDS011;2418;49.930;8.606;2023-05-19T03:29:23;9.80;;;2.60;;
4808;SDS011;2418;49.930;8.606;2023-05-19T03:31:49;2.92;;;2.60;;
4808;SDS011;2418;49.930;8.606;2023-05-19T03:34:16;8.10;;;2.50;;
4808;SDS011;2418;49.930;8.606;2023-05-19T03:36:42;7.50;;;2.60;;
4808;SDS011;2418;49.930;8.606;2023-05-19T03:39:09;4.20;;;3.00;;
4808;SDS011;2418;49.930;8.606;2023-05-19T03:41:35;6.30;;;3.05;;
4808;SDS011;2418;49.930;8.606;2023-05-19T03:44:01;8.70;;;3.53;;
4808;SDS011;2418;49.930;8.606;2023-05-19T03:46:28;4.93;;;2.88;;
4808;SDS011;2418;49.930;8.606;2023-05-19T03:48:54;5.72;;;2.90;;
4808;SDS011;2418;49.930;8.606;2023-05-19T03:51:22;6.25;;;3.35;;
4808;SDS011;2418;49.930;8.606;2023-05-19T03:53:49;4.70;;;2.55;;
4808;SDS011;2418;49.930;8.606;2023-05-19T03:56:15;7.07;;;3.20;;
4808;SDS011;2418;49.930;8.606;2023-05-19T03:58:42;3.58;;;3.10;;
4808;SDS011;2418;49.930;8.606;2023-05-19T04:01:09;10.40;;;3.20;;
4808;SDS011;2418;49.930;8.606;2023-05-19T04:03:35;4.68;;;2.50;;
4808;SDS011;2418;49.930;8.606;2023-05-19T04:06:01;10.98;;;2.97;;
4808;SDS011;2418;49.930;8.606;2023-05-19T04:08:28;6.25;;;3.20;;
4808;SDS011;2418;49.930;8.606;2023-05-19T04:10:54;6.73;;;3.00;;
4808;SDS011;2418;49.930;8.606;2023-05-19T04:13:20;6.15;;;2.60;;
4808;SDS011;2418;49.930;8.606;2023-05-19T04:15:46;5.30;;;2.97;;
4808;SDS011;2418;49.930;8.606;2023-05-19T04:18:12;9.00;;;3.20;;
4808;SDS011;2418;49.930;8.606;2023-05-19T04:20:38;4.68;;;2.70;;
4808;SDS011;2418;49.930;8.606;2023-05-19T04:23:04;5.90;;;3.05;;
4808;SDS011;2418;49.930;8.606;2023-05-19T04:25:30;8.05;;;3.22;;
4808;SDS011;2418;49.930;8.606;2023-05-19T04:27:56;5.20;;;3.17;;
4808;SDS011;2418;49.930;8.606;2023-05-19T04:30:23;7.57;;;3.88;;
4808;SDS011;2418;49.930;8.606;2023-05-19T04:32:49;5.20;;;3.35;;
4808;SDS011;2418;49.930;8.606;2023-05-19T04:35:17;4.85;;;2.83;;
4808;SDS011;2418;49.930;8.606;2023-05-19T04:37:43;6.20;;;3.30;;
4808;SDS011;2418;49.930;8.606;2023-05-19T04:40:12;2.65;;;2.55;;
4808;SDS011;2418;49.930;8.606;2023-05-19T04:42:39;10.80;;;3.70;;
4808;SDS011;2418;49.930;8.606;2023-05-19T04:45:06;7.35;;;3.50;;
4808;SDS011;2418;49.930;8.606;2023-05-19T04:47:33;4.05;;;3.03;;
4808;SDS011;2418;49.930;8.606;2023-05-19T04:50:03;5.30;;;2.70;;
4808;SDS011;2418;49.930;8.606;2023-05-19T04:52:29;4.15;;;3.08;;
4808;SDS011;2418;49.930;8.606;2023-05-19T04:54:55;6.63;;;3.05;;
4808;SDS011;2418;49.930;8.606;2023-05-19T04:57:21;6.68;;;2.70;;
4808;SDS011;2418;49.930;8.606;2023-05-19T04:59:47;2.50;;;2.30;;
4808;SDS011;2418;49.930;8.606;2023-05-19T05:02:13;8.20;;;3.47;;
4808;SDS011;2418;49.930;8.606;2023-05-19T05:04:39;6.18;;;2.92;;
4808;SDS011;2418;49.930;8.606;2023-05-19T05:07:11;4.38;;;2.75;;
4808;SDS011;2418;49.930;8.606;2023-05-19T05:09:37;8.55;;;2.80;;
4808;SDS011;2418;49.930;8.606;2023-05-19T05:12:02;6.20;;;2.75;;
4808;SDS011;2418;49.930;8.606;2023-05-19T05:14:31;5.60;;;2.78;;
4808;SDS011;2418;49.930;8.606;2023-05-19T05:16:57;8.60;;;3.00;;
4808;SDS011;2418;49.930;8.606;2023-05-19T05:19:23;4.18;;;3.17;;
4808;SDS011;2418;49.930;8.606;2023-05-19T05:21:49;4.20;;;2.78;;
4808;SDS011;2418;49.930;8.606;2023-05-19T05:24:15;9.20;;;2.90;;
4808;SDS011;2418;49.930;8.606;2023-05-19T05:26:42;4.18;;;2.88;;
4808;SDS011;2418;49.930;8.606;2023-05-19T05:29:08;4.63;;;2.70;;
4808;SDS011;2418;49.930;8.606;2023-05-19T05:31:34;8.13;;;3.05;;
4808;SDS011;2418;49.930;8.606;2023-05-19T05:34:01;6.30;;;2.50;;
4808;SDS011;2418;49.930;8.606;2023-05-19T05:36:27;5.22;;;2.33;;
4808;SDS011;2418;49.930;8.606;2023-05-19T05:38:54;5.03;;;2.60;;
4808;SDS011;2418;49.930;8.606;2023-05-19T05:41:20;8.32;;;2.70;;
4808;SDS011;2418;49.930;8.606;2023-05-19T05:43:46;6.28;;;2.60;;
4808;SDS011;2418;49.930;8.606;2023-05-19T05:46:12;7.30;;;2.60;;
4808;SDS011;2418;49.930;8.606;2023-05-19T05:48:38;6.40;;;2.90;;
4808;SDS011;2418;49.930;8.606;2023-05-19T05:51:06;4.38;;;2.60;;
4808;SDS011;2418;49.930;8.606;2023-05-19T05:53:33;4.25;;;2.28;;
4808;SDS011;2418;49.930;8.606;2023-05-19T05:56:01;10.13;;;2.63;;
4808;SDS011;2418;49.930;8.606;2023-05-19T05:58:28;3.90;;;2.50;;
4808;SDS011;2418;49.930;8.606;2023-05-19T06:00:53;6.60;;;2.90;;
4808;SDS011;2418;49.930;8.606;2023-05-19T06:03:21;8.50;;;2.67;;
4808;SDS011;2418;49.930;8.606;2023-05-19T06:05:48;2.33;;;1.80;;
4808;SDS011;2418;49.930;8.606;2023-05-19T06:08:14;6.10;;;3.40;;
4808;SDS011;2418;49.930;8.606;2023-05-19T06:10:41;3.50;;;2.30;;
4808;SDS011;2418;49.930;8.606;2023-05-19T06:13:07;2.53;;;2.20;;
4808;SDS011;2418;49.930;8.606;2023-05-19T06:15:33;6.63;;;2.80;;
4808;SDS011;2418;49.930;8.606;2023-05-19T06:17:59;4.00;;;2.28;;
4808;SDS011;2418;49.930;8.606;2023-05-19T06:20:25;6.30;;;3.30;;
4808;SDS011;2418;49.930;8.606;2023-05-19T06:22:51;6.40;;;3.20;;
4808;SDS011;2418;49.930;8.606;2023-05-19T06:25:17;3.78;;;2.90;;
4808;SDS011;2418;49.930;8.606;2023-05-19T06:27:44;6.40;;;2.22;;
4808;SDS011;2418;49.930;8.606;2023-05-19T06:30:10;7.07;;;2.40;;
4808;SDS011;2418;49.930;8.606;2023-05-19T06:32:36;2.42;;;2.22;;
4808;SDS011;2418;49.930;8.606;2023-05-19T06:35:02;5.80;;;2.63;;
4808;SDS011;2418;49.930;8.606;2023-05-19T06:37:29;5.50;;;2.40;;
4808;SDS011;2418;49.930;8.606;2023-05-19T06:39:55;3.30;;;2.60;;
4808;SDS011;2418;49.930;8.606;2023-05-19T06:42:21;6.57;;;2.38;;
4808;SDS011;2418;49.930;8.606;2023-05-19T06:44:48;4.35;;;2.35;;
4808;SDS011;2418;49.930;8.606;2023-05-19T06:47:15;6.78;;;2.50;;
4808;SDS011;2418;49.930;8.606;2023-05-19T06:49:41;6.40;;;2.10;;
4808;SDS011;2418;49.930;8.606;2023-05-19T06:52:07;3.95;;;2.30;;
4808;SDS011;2418;49.930;8.606;2023-05-19T06:54:33;3.67;;;2.15;;
4808;SDS011;2418;49.930;8.606;2023-05-19T06:56:59;5.70;;;2.10;;
4808;SDS011;2418;49.930;8.606;2023-05-19T06:59:26;7.38;;;1.85;;
4808;SDS011;2418;49.930;8.606;2023-05-19T07:01:52;2.77;;;2.00;;
4808;SDS011;2418;49.930;8.606;2023-05-19T07:04:18;2.53;;;2.05;;
4808;SDS011;2418;49.930;8.606;2023-05-19T07:06:44;5.95;;;2.30;;
4808;SDS011;2418;49.930;8.606;2023-05-19T07:09:10;7.13;;;2.10;;
4808;SDS011;2418;49.930;8.606;2023-05-19T07:11:36;2.30;;;2.10;;
4808;SDS011;2418;49.930;8.606;2023-05-19T07:14:02;2.85;;;2.10;;
4808;SDS011;2418;49.930;8.606;2023-05-19T07:16:30;5.00;;;2.20;;
4808;SDS011;2418;49.930;8.606;2023-05-19T07:18:56;5.00;;;1.90;;
4808;SDS011;2418;49.930;8.606;2023-05-19T07:21:22;6.88;;;2.20;;
4808;SDS011;2418;49.930;8.606;2023-05-19T07:23:54;4.40;;;2.45;;
4808;SDS011;2418;49.930;8.606;2023-05-19T07:26:20;3.40;;;2.10;;
4808;SDS011;2418;49.930;8.606;2023-05-19T07:28:46;3.30;;;1.83;;
4808;SDS011;2418;49.930;8.606;2023-05-19T07:31:12;6.00;;;2.60;;
4808;SDS011;2418;49.930;8.606;2023-05-19T07:33:39;5.53;;;2.30;;
4808;SDS011;2418;49.930;8.606;2023-05-19T07:36:05;1.70;;;1.60;;
4808;SDS011;2418;49.930;8.606;2023-05-19T07:38:31;3.20;;;1.83;;
4808;SDS011;2418;49.930;8.606;2023-05-19T07:40:59;4.55;;;2.30;;
4808;SDS011;2418;49.930;8.606;2023-05-19T07:43:25;3.15;;;1.60;;
4808;SDS011;2418;49.930;8.606;2023-05-19T07:45:51;4.25;;;2.60;;
4808;SDS011;2418;49.930;8.606;2023-05-19T07:48:22;4.90;;;1.80;;
4808;SDS011;2418;49.930;8.606;2023-05-19T07:50:49;3.20;;;1.65;;
4808;SDS011;2418;49.930;8.606;2023-05-19T07:53:16;3.22;;;1.98;;
4808;SDS011;2418;49.930;8.606;2023-05-19T07:55:42;11.30;;;2.80;;
4808;SDS011;2418;49.930;8.606;2023-05-19T07:58:08;5.57;;;2.20;;
4808;SDS011;2418;49.930;8.606;2023-05-19T08:00:34;4.55;;;1.73;;
4808;SDS011;2418;49.930;8.606;2023-05-19T08:03:00;7.70;;;2.50;;
4808;SDS011;2418;49.930;8.606;2023-05-19T08:05:27;2.10;;;1.80;;
4808;SDS011;2418;49.930;8.606;2023-05-19T08:07:53;3.67;;;2.40;;
4808;SDS011;2418;49.930;8.606;2023-05-19T08:10:20;4.20;;;2.20;;
4808;SDS011;2418;49.930;8.606;2023-05-19T08:12:48;2.42;;;2.22;;
4808;SDS011;2418;49.930;8.606;2023-05-19T08:15:15;2.17;;;1.80;;
4808;SDS011;2418;49.930;8.606;2023-05-19T08:17:41;2.72;;;2.10;;
4808;SDS011;2418;49.930;8.606;2023-05-19T08:20:07;5.28;;;2.60;;
4808;SDS011;2418;49.930;8.606;2023-05-19T08:22:34;3.28;;;1.80;;
4808;SDS011;2418;49.930;8.606;2023-05-19T08:25:01;11.52;;;1.80;;
4808;SDS011;2418;49.930;8.606;2023-05-19T08:27:30;3.10;;;1.90;;
4808;SDS011;2418;49.930;8.606;2023-05-19T08:29:56;2.80;;;1.70;;
4808;SDS011;2418;49.930;8.606;2023-05-19T08:32:22;3.83;;;2.00;;
4808;SDS011;2418;49.930;8.606;2023-05-19T08:34:49;2.92;;;1.90;;
4808;SDS011;2418;49.930;8.606;2023-05-19T08:37:15;2.60;;;1.95;;
4808;SDS011;2418;49.930;8.606;2023-05-19T08:39:41;2.13;;;1.40;;
4808;SDS011;2418;49.930;8.606;2023-05-19T08:42:07;3.08;;;2.70;;
4808;SDS011;2418;49.930;8.606;2023-05-19T08:44:34;4.70;;;2.30;;
4808;SDS011;2418;49.930;8.606;2023-05-19T08:47:01;5.63;;;1.80;;
4808;SDS011;2418;49.930;8.606;2023-05-19T08:49:31;2.00;;;1.85;;
4808;SDS011;2418;49.930;8.606;2023-05-19T08:54:32;4.60;;;2.65;;
4808;SDS011;2418;49.930;8.606;2023-05-19T08:57:01;1.63;;;1.52;;
4808;SDS011;2418;49.930;8.606;2023-05-19T08:59:29;3.10;;;1.80;;
4808;SDS011;2418;49.930;8.606;2023-05-19T09:01:55;3.10;;;2.03;;
4808;SDS011;2418;49.930;8.606;2023-05-19T09:04:21;1.63;;;1.52;;
4808;SDS011;2418;49.930;8.606;2023-05-19T09:06:52;4.05;;;2.10;;
4808;SDS011;2418;49.930;8.606;2023-05-19T09:09:18;6.03;;;1.75;;
4808;SDS011;2418;49.930;8.606;2023-05-19T09:11:44;2.28;;;1.50;;
4808;SDS011;2418;49.930;8.606;2023-05-19T09:14:11;2.20;;;1.67;;
4808;SDS011;2418;49.930;8.606;2023-05-19T09:16:37;2.92;;;1.90;;
4808;SDS011;2418;49.930;8.606;2023-05-19T09:19:03;3.25;;;1.90;;
4808;SDS011;2418;49.930;8.606;2023-05-19T09:21:32;3.00;;;1.73;;
4808;SDS011;2418;49.930;8.606;2023-05-19T09:24:05;4.45;;;1.70;;
4808;SDS011;2418;49.930;8.606;2023-05-19T09:26:37;5.95;;;1.85;;
4808;SDS011;2418;49.930;8.606;2023-05-19T09:29:10;2.78;;;1.48;;
4808;SDS011;2418;49.930;8.606;2023-05-19T09:31:39;1.90;;;1.60;;
4808;SDS011;2418;49.930;8.606;2023-05-19T09:34:10;8.32;;;1.88;;
4808;SDS011;2418;49.930;8.606;2023-05-19T09:36:38;2.40;;;1.77;;
4808;SDS011;2418;49.930;8.606;2023-05-19T09:39:14;1.83;;;1.73;;
4808;SDS011;2418;49.930;8.606;2023-05-19T09:41:41;2.70;;;2.20;;
4808;SDS011;2418;49.930;8.606;2023-05-19T09:44:11;5.45;;;1.77;;
4808;SDS011;2418;49.930;8.606;2023-05-19T09:46:37;1.92;;;1.50;;
4808;SDS011;2418;49.930;8.606;2023-05-19T09:49:07;2.40;;;1.20;;
4808;SDS011;2418;49.930;8.606;2023-05-19T09:51:39;2.80;;;1.50;;
4808;SDS011;2418;49.930;8.606;2023-05-19T09:54:06;1.67;;;1.40;;
4808;SDS011;2418;49.930;8.606;2023-05-19T09:56:34;2.47;;;1.80;;
4808;SDS011;2418;49.930;8.606;2023-05-19T09:59:02;3.88;;;1.63;;
4808;SDS011;2418;49.930;8.606;2023-05-19T10:01:30;5.10;;;1.50;;
4808;SDS011;2418;49.930;8.606;2023-05-19T10:03:59;4.45;;;1.90;;
4808;SDS011;2418;49.930;8.606;2023-05-19T10:06:25;3.72;;;1.88;;
4808;SDS011;2418;49.930;8.606;2023-05-19T10:08:52;3.90;;;1.80;;
4808;SDS011;2418;49.930;8.606;2023-05-19T10:11:19;3.10;;;1.50;;
4808;SDS011;2418;49.930;8.606;2023-05-19T10:13:45;1.35;;;1.25;;
4808;SDS011;2418;49.930;8.606;2023-05-19T10:16:14;2.90;;;1.67;;
4808;SDS011;2418;49.930;8.606;2023-05-19T10:18:43;1.60;;;1.30;;
4808;SDS011;2418;49.930;8.606;2023-05-19T10:21:10;3.70;;;1.80;;
4808;SDS011;2418;49.930;8.606;2023-05-19T10:23:37;9.52;;;4.07;;
4808;SDS011;2418;49.930;8.606;2023-05-19T10:26:03;7.00;;;2.05;;
4808;SDS011;2418;49.930;8.606;2023-05-19T10:28:34;1.90;;;1.80;;
4808;SDS011;2418;49.930;8.606;2023-05-19T10:31:00;2.13;;;1.50;;
4808;SDS011;2418;49.930;8.606;2023-05-19T10:33:38;2.03;;;1.85;;
4808;SDS011;2418;49.930;8.606;2023-05-19T10:39:01;3.50;;;2.03;;
4808;SDS011;2418;49.930;8.606;2023-05-19T10:46:45;3.10;;;1.80;;
4808;SDS011;2418;49.930;8.606;2023-05-19T10:49:18;3.22;;;1.58;;
4808;SDS011;2418;49.930;8.606;2023-05-19T10:51:45;4.18;;;1.77;;
4808;SDS011;2418;49.930;8.606;2023-05-19T10:54:11;4.50;;;2.00;;
4808;SDS011;2418;49.930;8.606;2023-05-19T10:56:49;3.47;;;1.73;;
4808;SDS011;2418;49.930;8.606;2023-05-19T10:59:31;2.22;;;1.80;;
4808;SDS011;2418;49.930;8.606;2023-05-19T11:02:02;1.60;;;1.50;;
4808;SDS011;2418;49.930;8.606;2023-05-19T11:04:38;4.90;;;1.90;;
4808;SDS011;2418;49.930;8.606;2023-05-19T11:07:07;4.45;;;1.70;;
4808;SDS011;2418;49.930;8.606;2023-05-19T11:09:39;2.20;;;1.70;;
4808;SDS011;2418;49.930;8.606;2023-05-19T11:12:05;2.30;;;1.70;;
4808;SDS011;2418;49.930;8.606;2023-05-19T11:14:31;3.88;;;1.85;;
4808;SDS011;2418;49.930;8.606;2023-05-19T11:16:57;5.00;;;2.03;;
4808;SDS011;2418;49.930;8.606;2023-05-19T11:19:25;1.77;;;1.67;;
4808;SDS011;2418;49.930;8.606;2023-05-19T11:21:51;4.60;;;1.98;;
4808;SDS011;2418;49.930;8.606;2023-05-19T11:24:37;3.15;;;1.58;;
4808;SDS011;2418;49.930;8.606;2023-05-19T11:29:51;10.25;;;2.50;;
4808;SDS011;2418;49.930;8.606;2023-05-19T11:32:19;1.87;;;1.73;;
4808;SDS011;2418;49.930;8.606;2023-05-19T11:34:46;3.00;;;1.80;;
4808;SDS011;2418;49.930;8.606;2023-05-19T11:37:13;1.52;;;1.42;;
4808;SDS011;2418;49.930;8.606;2023-05-19T11:39:39;1.90;;;1.70;;
4808;SDS011;2418;49.930;8.606;2023-05-19T11:42:09;3.70;;;1.80;;
4808;SDS011;2418;49.930;8.606;2023-05-19T11:44:35;2.28;;;1.40;;
4808;SDS011;2418;49.930;8.606;2023-05-19T11:47:02;2.20;;;1.50;;
4808;SDS011;2418;49.930;8.606;2023-05-19T11:49:28;2.92;;;2.20;;
4808;SDS011;2418;49.930;8.606;2023-05-19T11:51:54;1.60;;;1.40;;
4808;SDS011;2418;49.930;8.606;2023-05-19T11:54:27;3.57;;;1.60;;
4808;SDS011;2418;49.930;8.606;2023-05-19T11:56:54;4.00;;;1.90;;
4808;SDS011;2418;49.930;8.606;2023-05-19T11:59:28;4.90;;;1.90;;
4808;SDS011;2418;49.930;8.606;2023-05-19T12:01:55;2.80;;;1.20;;
4808;SDS011;2418;49.930;8.606;2023-05-19T12:04:21;3.78;;;1.75;;
4808;SDS011;2418;49.930;8.606;2023-05-19T12:06:47;7.10;;;1.60;;
4808;SDS011;2418;49.930;8.606;2023-05-19T12:09:13;1.90;;;1.50;;
4808;SDS011;2418;49.930;8.606;2023-05-19T12:11:41;4.10;;;1.70;;
4808;SDS011;2418;49.930;8.606;2023-05-19T12:14:09;1.40;;;1.30;;
4808;SDS011;2418;49.930;8.606;2023-05-19T12:16:38;6.40;;;1.80;;
4808;SDS011;2418;49.930;8.606;2023-05-19T12:19:04;3.43;;;1.90;;
4808;SDS011;2418;49.930;8.606;2023-05-19T12:21:31;3.40;;;1.70;;
4808;SDS011;2418;49.930;8.606;2023-05-19T12:23:57;2.03;;;1.40;;
4808;SDS011;2418;49.930;8.606;2023-05-19T12:26:24;2.20;;;2.00;;
4808;SDS011;2418;49.930;8.606;2023-05-19T12:28:50;3.70;;;1.70;;
4808;SDS011;2418;49.930;8.606;2023-05-19T12:31:16;4.25;;;1.70;;
4808;SDS011;2418;49.930;8.606;2023-05-19T12:33:43;3.70;;;1.52;;
4808;SDS011;2418;49.930;8.606;2023-05-19T12:36:10;3.65;;;1.80;;
4808;SDS011;2418;49.930;8.606;2023-05-19T12:38:37;2.30;;;1.75;;
4808;SDS011;2418;49.930;8.606;2023-05-19T12:41:06;1.40;;;1.40;;
4808;SDS011;2418;49.930;8.606;2023-05-19T12:43:32;3.05;;;1.50;;
4808;SDS011;2418;49.930;8.606;2023-05-19T12:46:07;1.90;;;1.40;;
4808;SDS011;2418;49.930;8.606;2023-05-19T12:48:33;1.50;;;1.40;;
4808;SDS011;2418;49.930;8.606;2023-05-19T12:50:59;1.80;;;1.43;;
4808;SDS011;2418;49.930;8.606;2023-05-19T12:53:25;2.72;;;1.73;;
4808;SDS011;2418;49.930;8.606;2023-05-19T12:55:52;1.60;;;1.50;;
4808;SDS011;2418;49.930;8.606;2023-05-19T12:58:18;3.65;;;1.55;;
4808;SDS011;2418;49.930;8.606;2023-05-19T13:00:46;3.30;;;1.70;;
4808;SDS011;2418;49.930;8.606;2023-05-19T13:03:14;1.40;;;1.30;;
4808;SDS011;2418;49.930;8.606;2023-05-19T13:05:41;2.30;;;1.38;;
4808;SDS011;2418;49.930;8.606;2023-05-19T13:08:11;2.10;;;2.00;;
4808;SDS011;2418;49.930;8.606;2023-05-19T13:10:38;2.60;;;1.30;;
4808;SDS011;2418;49.930;8.606;2023-05-19T13:13:05;1.40;;;1.30;;
4808;SDS011;2418;49.930;8.606;2023-05-19T13:15:32;2.97;;;1.70;;
4808;SDS011;2418;49.930;8.606;2023-05-19T13:17:58;2.22;;;1.70;;
4808;SDS011;2418;49.930;8.606;2023-05-19T13:20:25;1.70;;;1.50;;
4808;SDS011;2418;49.930;8.606;2023-05-19T13:22:51;1.75;;;1.38;;
4808;SDS011;2418;49.930;8.606;2023-05-19T13:25:17;2.45;;;1.38;;
4808;SDS011;2418;49.930;8.606;2023-05-19T13:27:44;2.70;;;1.80;;
4808;SDS011;2418;49.930;8.606;2023-05-19T13:30:10;1.58;;;1.58;;
4808;SDS011;2418;49.930;8.606;2023-05-19T13:32:36;2.00;;;1.33;;
4808;SDS011;2418;49.930;8.606;2023-05-19T13:35:03;2.53;;;1.50;;
4808;SDS011;2418;49.930;8.606;2023-05-19T13:37:29;4.97;;;2.00;;
4808;SDS011;2418;49.930;8.606;2023-05-19T13:39:55;7.70;;;1.70;;
4808;SDS011;2418;49.930;8.606;2023-05-19T13:42:22;2.38;;;2.17;;
4808;SDS011;2418;49.930;8.606;2023-05-19T13:44:48;7.15;;;3.95;;
4808;SDS011;2418;49.930;8.606;2023-05-19T13:47:17;4.77;;;2.87;;
4808;SDS011;2418;49.930;8.606;2023-05-19T13:49:43;1.98;;;1.80;;
4808;SDS011;2418;49.930;8.606;2023-05-19T13:52:09;2.60;;;2.40;;
4808;SDS011;2418;49.930;8.606;2023-05-19T13:54:35;5.70;;;1.70;;
4808;SDS011;2418;49.930;8.606;2023-05-19T13:57:02;2.30;;;2.20;;
4808;SDS011;2418;49.930;8.606;2023-05-19T13:59:28;1.67;;;1.58;;
4808;SDS011;2418;49.930;8.606;2023-05-19T14:01:54;2.60;;;1.40;;
4808;SDS011;2418;49.930;8.606;2023-05-19T14:04:20;2.78;;;1.58;;
4808;SDS011;2418;49.930;8.606;2023-05-19T14:06:47;1.70;;;1.60;;
4808;SDS011;2418;49.930;8.606;2023-05-19T14:09:13;4.30;;;1.38;;
4808;SDS011;2418;49.930;8.606;2023-05-19T14:11:39;2.42;;;2.33;;
4808;SDS011;2418;49.930;8.606;2023-05-19T14:14:05;2.78;;;2.10;;
4808;SDS011;2418;49.930;8.606;2023-05-19T14:16:31;1.60;;;1.55;;
4808;SDS011;2418;49.930;8.606;2023-05-19T14:18:58;3.03;;;1.50;;
4808;SDS011;2418;49.930;8.606;2023-05-19T14:21:24;2.25;;;1.88;;
4808;SDS011;2418;49.930;8.606;2023-05-19T14:23:50;2.45;;;1.40;;
4808;SDS011;2418;49.930;8.606;2023-05-19T14:26:16;1.30;;;1.30;;
4808;SDS011;2418;49.930;8.606;2023-05-19T14:28:45;2.13;;;1.92;;
4808;SDS011;2418;49.930;8.606;2023-05-19T14:31:11;3.20;;;1.42;;
4808;SDS011;2418;49.930;8.606;2023-05-19T14:33:39;1.40;;;1.30;;
4808;SDS011;2418;49.930;8.606;2023-05-19T14:36:06;1.60;;;1.33;;
4808;SDS011;2418;49.930;8.606;2023-05-19T14:38:32;1.42;;;1.30;;
4808;SDS011;2418;49.930;8.606;2023-05-19T14:40:59;2.00;;;1.35;;
4808;SDS011;2418;49.930;8.606;2023-05-19T14:43:25;1.90;;;1.50;;
4808;SDS011;2418;49.930;8.606;2023-05-19T14:45:51;1.70;;;1.55;;
4808;SDS011;2418;49.930;8.606;2023-05-19T14:48:17;3.40;;;1.50;;
4808;SDS011;2418;49.930;8.606;2023-05-19T14:50:43;1.30;;;1.30;;
4808;SDS011;2418;49.930;8.606;2023-05-19T14:53:09;2.95;;;2.20;;
4808;SDS011;2418;49.930;8.606;2023-05-19T14:55:35;1.60;;;1.20;;
4808;SDS011;2418;49.930;8.606;2023-05-19T14:58:01;2.40;;;1.50;;
4808;SDS011;2418;49.930;8.606;2023-05-19T15:00:27;3.10;;;1.70;;
4808;SDS011;2418;49.930;8.606;2023-05-19T15:02:53;4.75;;;1.60;;
4808;SDS011;2418;49.930;8.606;2023-05-19T15:05:20;4.30;;;1.40;;
4808;SDS011;2418;49.930;8.606;2023-05-19T15:07:47;7.25;;;1.90;;
4808;SDS011;2418;49.930;8.606;2023-05-19T15:10:13;1.90;;;1.80;;
4808;SDS011;2418;49.930;8.606;2023-05-19T15:12:40;2.78;;;1.70;;
4808;SDS011;2418;49.930;8.606;2023-05-19T15:15:06;1.65;;;1.55;;
4808;SDS011;2418;49.930;8.606;2023-05-19T15:17:32;1.40;;;1.40;;
4808;SDS011;2418;49.930;8.606;2023-05-19T15:19:58;2.00;;;1.80;;
4808;SDS011;2418;49.930;8.606;2023-05-19T15:22:24;1.42;;;1.40;;
4808;SDS011;2418;49.930;8.606;2023-05-19T15:24:50;1.73;;;1.40;;
4808;SDS011;2418;49.930;8.606;2023-05-19T15:27:16;2.50;;;1.60;;
4808;SDS011;2418;49.930;8.606;2023-05-19T15:29:42;2.20;;;2.05;;
4808;SDS011;2418;49.930;8.606;2023-05-19T15:32:11;3.85;;;1.83;;
4808;SDS011;2418;49.930;8.606;2023-05-19T15:34:39;2.10;;;2.00;;
4808;SDS011;2418;49.930;8.606;2023-05-19T15:37:05;3.08;;;1.77;;
4808;SDS011;2418;49.930;8.606;2023-05-19T15:39:31;2.90;;;2.00;;
4808;SDS011;2418;49.930;8.606;2023-05-19T15:41:57;2.50;;;1.40;;